Time;durP1;ratioP1;P1;durP2;ratioP2;P2;SDS_P1;SDS_P2;PMS_P1;PMS_P2;Temp;Humidity;BMP_temperature;BMP_pressure;BME280_temperature;BME280_humidity;BME280_pressure;Samples;Min_cycle;Max_cycle;Signal;HPM_P1;HPM_P2
2023/10/01 00:02:25;;;;;;;18.43;11.10;;;14.00;22.80;;;;;;4987516;28;20473;-70
2023/10/01 00:04:51;;;;;;;18.33;11.20;;;14.00;22.80;;;;;;4988719;28;20575;-69
2023/10/01 00:07:18;;;;;;;21.70;14.10;;;14.00;22.90;;;;;;4989847;28;20469;-70
2023/10/01 00:09:45;;;;;;;21.03;11.50;;;14.00;22.80;;;;;;4990784;28;20507;-69
2023/10/01 00:12:13;;;;;;;21.50;11.43;;;14.00;23.10;;;;;;4992986;28;20471;-70
2023/10/01 00:14:40;;;;;;;19.73;12.10;;;14.00;23.10;;;;;;4984334;28;20486;-69
2023/10/01 00:17:08;;;;;;;19.03;10.73;;;14.00;22.90;;;;;;4997500;28;20956;-69
2023/10/01 00:19:35;;;;;;;18.80;11.50;;;14.00;23.20;;;;;;4985782;28;20484;-69
2023/10/01 00:22:01;;;;;;;20.47;10.73;;;14.00;23.20;;;;;;4984804;28;20481;-69
2023/10/01 00:24:29;;;;;;;23.60;12.00;;;14.00;23.30;;;;;;4983359;28;20594;-69
2023/10/01 00:26:55;;;;;;;21.87;11.03;;;14.00;23.50;;;;;;4987463;28;20477;-69
2023/10/01 00:29:23;;;;;;;26.30;11.87;;;14.00;23.50;;;;;;4989673;28;20496;-69
2023/10/01 00:31:50;;;;;;;18.30;11.47;;;14.00;23.20;;;;;;4984775;28;20507;-69
2023/10/01 00:34:17;;;;;;;23.83;12.20;;;14.00;23.90;;;;;;4985753;28;20481;-69
2023/10/01 00:36:44;;;;;;;21.97;12.43;;;14.00;24.50;;;;;;4986175;28;20547;-69
2023/10/01 00:39:12;;;;;;;21.67;11.83;;;14.00;24.20;;;;;;4988093;28;20465;-70
2023/10/01 00:41:40;;;;;;;19.73;11.40;;;14.00;24.10;;;;;;4986585;28;21013;-69
2023/10/01 00:44:07;;;;;;;18.33;11.20;;;14.10;24.70;;;;;;4987913;28;20575;-69
2023/10/01 00:46:35;;;;;;;20.00;10.47;;;14.00;24.40;;;;;;4985146;28;20519;-69
2023/10/01 00:49:04;;;;;;;28.03;12.47;;;13.90;24.60;;;;;;4987040;28;20468;-69
2023/10/01 00:51:32;;;;;;;23.00;12.47;;;13.90;24.50;;;;;;4988996;28;20469;-70
2023/10/01 00:54:02;;;;;;;23.23;10.60;;;13.90;24.60;;;;;;4985709;28;20524;-70
2023/10/01 00:56:29;;;;;;;20.43;11.40;;;13.90;24.70;;;;;;4991855;28;20464;-70
2023/10/01 00:58:56;;;;;;;17.43;10.30;;;13.90;24.40;;;;;;4993870;28;20460;-70
2023/10/01 01:01:26;;;;;;;22.67;11.13;;;13.90;24.40;;;;;;4989732;28;20508;-69
2023/10/01 01:03:55;;;;;;;20.97;12.50;;;13.80;24.40;;;;;;4988278;28;20500;-69
2023/10/01 01:06:23;;;;;;;21.67;11.40;;;13.80;24.80;;;;;;4990202;28;20465;-69
2023/10/01 01:08:54;;;;;;;19.53;11.93;;;13.80;24.60;;;;;;4988890;28;20531;-69
2023/10/01 01:11:23;;;;;;;24.13;12.40;;;13.70;24.90;;;;;;4991057;28;20464;-69
2023/10/01 01:13:50;;;;;;;27.13;11.87;;;13.70;24.90;;;;;;4984488;28;20575;-69
2023/10/01 01:16:19;;;;;;;18.60;10.70;;;13.70;24.90;;;;;;4995250;28;20476;-69
2023/10/01 01:18:47;;;;;;;19.60;11.93;;;13.60;25.10;;;;;;4994648;28;20468;-69
2023/10/01 01:21:15;;;;;;;18.93;11.60;;;13.60;24.90;;;;;;4985922;28;20461;-69
2023/10/01 01:23:45;;;;;;;20.10;11.23;;;13.60;25.00;;;;;;4988508;28;20484;-70
2023/10/01 01:26:13;;;;;;;17.97;12.20;;;13.50;25.10;;;;;;4993896;28;20472;-71
2023/10/01 01:28:41;;;;;;;18.77;10.90;;;13.50;25.10;;;;;;5003820;28;20488;-70
2023/10/01 01:31:10;;;;;;;17.03;10.23;;;13.50;25.00;;;;;;4987978;28;21112;-70
2023/10/01 01:33:44;;;;;;;19.47;10.47;;;13.40;25.00;;;;;;4985748;28;21071;-70
2023/10/01 01:36:12;;;;;;;18.80;11.87;;;13.40;25.10;;;;;;4982113;28;20576;-70
2023/10/01 01:38:54;;;;;;;18.50;11.17;;;13.30;25.20;;;;;;4981609;28;20468;-70
2023/10/01 01:41:28;;;;;;;22.00;11.67;;;13.30;25.50;;;;;;4985416;28;20467;-70
2023/10/01 01:43:55;;;;;;;19.00;10.70;;;13.30;25.30;;;;;;4986875;28;20903;-70
2023/10/01 01:46:20;;;;;;;20.27;10.87;;;13.30;25.80;;;;;;4988262;28;20456;-70
2023/10/01 01:48:52;;;;;;;21.70;12.23;;;13.30;25.90;;;;;;4984805;28;20475;-69
2023/10/01 01:51:20;;;;;;;18.33;11.57;;;13.20;25.90;;;;;;4982923;28;20212;-69
2023/10/01 01:53:50;;;;;;;20.13;13.87;;;13.30;25.90;;;;;;4986411;28;20566;-69
2023/10/01 01:56:18;;;;;;;28.33;12.40;;;13.20;25.90;;;;;;4987963;28;20464;-70
2023/10/01 01:58:47;;;;;;;19.80;12.83;;;13.20;26.20;;;;;;4987210;28;20539;-70
2023/10/01 02:01:23;;;;;;;18.73;11.13;;;13.20;26.50;;;;;;4981332;28;20469;-70
2023/10/01 02:03:51;;;;;;;18.97;11.37;;;13.30;26.70;;;;;;4982470;28;20546;-70
2023/10/01 02:06:26;;;;;;;16.60;10.20;;;13.20;26.80;;;;;;4985876;28;20473;-70
2023/10/01 02:08:57;;;;;;;21.60;12.30;;;13.20;26.80;;;;;;4986622;28;20468;-70
2023/10/01 02:11:24;;;;;;;20.70;11.87;;;13.20;26.70;;;;;;4987123;28;20989;-69
2023/10/01 02:13:51;;;;;;;21.80;11.27;;;13.20;26.70;;;;;;4987550;28;20492;-69
2023/10/01 02:16:34;;;;;;;20.07;12.10;;;13.20;26.80;;;;;;4984406;28;20472;-69
2023/10/01 02:19:14;;;;;;;21.50;10.30;;;13.10;27.10;;;;;;4988363;28;20464;-70
2023/10/01 02:21:48;;;;;;;16.27;11.00;;;13.10;26.90;;;;;;4990382;28;20464;-70
2023/10/01 02:24:22;;;;;;;20.87;10.73;;;13.10;27.10;;;;;;4986576;28;20488;-70
2023/10/01 02:26:52;;;;;;;18.50;10.70;;;13.00;26.90;;;;;;4987969;28;20456;-69
2023/10/01 02:29:24;;;;;;;19.47;9.87;;;12.90;26.90;;;;;;4990939;28;20465;-70
2023/10/01 02:31:55;;;;;;;18.00;10.80;;;12.90;26.50;;;;;;4989728;28;20492;-69
2023/10/01 02:34:22;;;;;;;21.40;10.40;;;12.90;26.40;;;;;;4991960;28;20487;-70
2023/10/01 02:36:49;;;;;;;19.47;10.70;;;12.80;26.20;;;;;;4989812;28;20465;-70
2023/10/01 02:39:21;;;;;;;16.70;9.57;;;12.80;26.20;;;;;;4992346;28;21031;-69
2023/10/01 02:42:09;;;;;;;19.00;11.47;;;12.80;26.20;;;;;;4988751;28;20511;-69
2023/10/01 02:44:38;;;;;;;15.70;9.20;;;12.80;26.00;;;;;;4988420;28;20476;-69
2023/10/01 02:47:09;;;;;;;15.60;9.60;;;12.80;26.00;;;;;;4991111;28;20502;-69
2023/10/01 02:49:36;;;;;;;17.87;10.07;;;12.80;26.10;;;;;;5005111;23;21000;-69
2023/10/01 02:52:04;;;;;;;18.40;10.23;;;12.80;25.90;;;;;;4995492;28;20523;-68
2023/10/01 02:54:37;;;;;;;17.77;11.43;;;12.90;26.40;;;;;;4991224;28;20477;-68
2023/10/01 02:57:12;;;;;;;20.40;10.57;;;12.90;26.10;;;;;;4991287;28;20500;-69
2023/10/01 03:00:09;;;;;;;18.07;11.27;;;12.90;26.40;;;;;;4996070;28;20566;-68
2023/10/01 03:02:25;;;;;;;17.33;9.50;;;12.90;26.50;;;;;;4990144;28;20992;-69
2023/10/01 03:04:51;;;;;;;16.00;8.97;;;12.90;26.60;;;;;;4988852;28;20495;-68
2023/10/01 03:07:18;;;;;;;17.40;10.10;;;13.00;26.40;;;;;;4994820;28;20214;-69
2023/10/01 03:09:48;;;;;;;19.13;11.33;;;13.00;26.90;;;;;;4994577;28;20464;-68
2023/10/01 03:12:34;;;;;;;20.70;11.50;;;12.90;27.40;;;;;;4992635;28;20456;-68
2023/10/01 03:15:16;;;;;;;24.17;10.93;;;13.00;27.50;;;;;;4996996;28;20476;-69
2023/10/01 03:17:55;;;;;;;20.47;11.17;;;12.90;27.40;;;;;;4993210;28;20467;-69
2023/10/01 03:23:04;;;;;;;19.53;10.93;;;12.90;27.50;;;;;;4987390;28;20473;-68
2023/10/01 03:25:40;;;;;;;18.13;9.93;;;12.90;27.60;;;;;;4983997;28;20603;-68
2023/10/01 03:28:11;;;;;;;18.03;10.27;;;12.80;27.60;;;;;;4994076;28;20548;-68
2023/10/01 03:30:45;;;;;;;18.50;11.17;;;12.80;27.70;;;;;;4987570;28;20485;-68
2023/10/01 03:33:15;;;;;;;15.37;10.10;;;12.80;28.00;;;;;;4992447;28;20474;-68
2023/10/01 03:35:47;;;;;;;17.57;10.67;;;12.80;27.80;;;;;;4993173;28;20888;-68
2023/10/01 03:38:15;;;;;;;19.33;11.77;;;12.80;27.80;;;;;;4989896;28;20465;-68
2023/10/01 03:41:00;;;;;;;18.13;10.27;;;12.70;27.80;;;;;;4996906;28;20833;-68
2023/10/01 03:43:34;;;;;;;17.17;10.40;;;12.70;27.80;;;;;;4991574;28;20547;-68
2023/10/01 03:46:07;;;;;;;17.30;11.27;;;12.80;27.50;;;;;;4991768;28;20547;-68
2023/10/01 03:48:57;;;;;;;18.73;11.63;;;12.70;27.60;;;;;;4986969;28;20532;-68
2023/10/01 03:51:28;;;;;;;16.03;10.60;;;12.80;27.80;;;;;;4993413;28;20541;-68
2023/10/01 03:54:03;;;;;;;16.73;10.37;;;12.70;27.50;;;;;;4989250;28;20495;-68
2023/10/01 03:56:33;;;;;;;17.37;11.53;;;12.70;27.50;;;;;;4990613;28;20546;-68
2023/10/01 03:59:00;;;;;;;15.07;9.87;;;12.70;27.90;;;;;;4987773;28;20472;-68
2023/10/01 04:01:33;;;;;;;20.37;9.80;;;12.70;27.70;;;;;;4984225;28;20472;-67
2023/10/01 04:04:01;;;;;;;20.60;11.63;;;12.60;27.50;;;;;;4991156;28;21052;-68
2023/10/01 04:06:29;;;;;;;22.30;10.30;;;12.60;27.50;;;;;;4988645;28;20555;-68
2023/10/01 04:09:00;;;;;;;25.03;11.40;;;12.60;27.60;;;;;;4990350;28;21050;-67
2023/10/01 04:14:10;;;;;;;19.87;11.27;;;12.50;27.70;;;;;;4986319;28;20517;-67
2023/10/01 04:16:46;;;;;;;17.20;10.63;;;12.50;27.70;;;;;;4990141;28;20461;-68
2023/10/01 04:19:18;;;;;;;18.43;10.50;;;12.50;27.60;;;;;;4990905;28;20502;-68
2023/10/01 04:21:50;;;;;;;17.83;10.27;;;12.50;27.90;;;;;;4992248;28;20476;-68
2023/10/01 04:24:19;;;;;;;18.50;10.57;;;12.50;27.80;;;;;;4990905;28;20520;-67
2023/10/01 04:26:47;;;;;;;14.60;9.70;;;12.40;27.90;;;;;;4990581;28;20460;-67
2023/10/01 04:29:16;;;;;;;18.77;10.60;;;12.40;27.90;;;;;;4991103;28;20492;-68
2023/10/01 04:31:48;;;;;;;17.37;10.80;;;12.40;27.80;;;;;;4989511;28;20537;-68
2023/10/01 04:34:17;;;;;;;18.90;11.20;;;12.30;27.80;;;;;;4993564;28;20476;-68
2023/10/01 04:36:50;;;;;;;18.63;11.50;;;12.30;28.10;;;;;;4988888;28;20496;-68
2023/10/01 04:39:17;;;;;;;20.87;10.10;;;12.30;28.10;;;;;;4994791;28;20523;-68
2023/10/01 04:41:45;;;;;;;17.03;10.13;;;12.30;28.00;;;;;;4987292;28;20473;-68
2023/10/01 04:44:19;;;;;;;14.53;8.57;;;12.20;28.30;;;;;;4992756;28;20553;-68
2023/10/01 04:46:51;;;;;;;12.27;8.00;;;12.20;27.90;;;;;;4988107;28;20488;-68
2023/10/01 04:49:39;;;;;;;13.90;8.10;;;12.20;27.50;;;;;;4994304;28;20465;-68
2023/10/01 04:52:10;;;;;;;16.87;10.90;;;12.20;27.50;;;;;;4994769;28;21725;-68
2023/10/01 04:54:37;;;;;;;15.63;9.07;;;12.20;28.10;;;;;;4986492;28;20513;-69
2023/10/01 04:57:04;;;;;;;14.47;7.93;;;12.10;27.20;;;;;;4985178;28;20491;-68
2023/10/01 04:59:32;;;;;;;14.90;9.17;;;12.10;27.50;;;;;;4990411;28;20463;-68
2023/10/01 05:02:18;;;;;;;18.97;10.70;;;12.00;27.70;;;;;;4989647;28;20534;-68
2023/10/01 05:04:46;;;;;;;15.87;9.47;;;12.00;27.80;;;;;;4981623;28;20990;-68
2023/10/01 05:07:15;;;;;;;15.17;8.60;;;12.00;28.00;;;;;;4988424;28;20464;-68
2023/10/01 05:09:43;;;;;;;15.77;9.80;;;12.00;28.20;;;;;;4986641;28;20566;-68
2023/10/01 05:12:11;;;;;;;18.43;8.80;;;12.00;28.50;;;;;;4994153;28;20551;-68
2023/10/01 05:14:56;;;;;;;16.03;9.57;;;12.00;28.50;;;;;;4984085;28;20956;-68
2023/10/01 05:17:26;;;;;;;12.13;8.60;;;12.00;28.70;;;;;;4991519;28;20559;-68
2023/10/01 05:19:52;;;;;;;15.00;9.07;;;11.90;29.00;;;;;;4987021;28;20825;-68
2023/10/01 05:22:19;;;;;;;15.13;8.67;;;11.90;28.70;;;;;;4987656;28;20472;-68
2023/10/01 05:24:49;;;;;;;16.50;10.00;;;11.90;29.00;;;;;;4987643;28;20493;-68
2023/10/01 05:27:19;;;;;;;14.23;8.40;;;11.90;29.00;;;;;;4987523;28;20465;-68
2023/10/01 05:29:46;;;;;;;14.93;9.40;;;11.90;28.80;;;;;;4986273;28;20989;-68
2023/10/01 05:32:13;;;;;;;15.27;10.50;;;11.90;29.30;;;;;;4988756;28;21012;-68
2023/10/01 05:34:42;;;;;;;18.70;10.80;;;12.00;29.50;;;;;;4983675;28;20539;-68
2023/10/01 05:37:12;;;;;;;20.47;12.30;;;12.00;29.60;;;;;;4986392;28;20461;-65
2023/10/01 05:42:19;;;;;;;28.77;11.50;;;12.10;29.90;;;;;;4986860;28;20551;-65
2023/10/01 05:44:46;;;;;;;20.57;11.20;;;12.10;29.90;;;;;;4981144;28;20492;-70
2023/10/01 05:47:13;;;;;;;16.70;10.93;;;12.10;30.10;;;;;;4987231;28;20839;-67
2023/10/01 05:49:49;;;;;;;16.53;11.57;;;12.10;30.00;;;;;;4985687;28;20488;-67
2023/10/01 05:52:17;;;;;;;14.50;10.27;;;12.20;30.30;;;;;;4986296;28;20953;-73
2023/10/01 05:54:52;;;;;;;15.50;9.43;;;12.30;30.40;;;;;;4985922;28;20492;-67
2023/10/01 05:57:21;;;;;;;21.70;10.40;;;12.50;30.00;;;;;;4990442;28;20468;-69
2023/10/01 05:59:56;;;;;;;16.03;9.30;;;12.70;29.40;;;;;;4988307;28;20468;-69
2023/10/01 06:02:41;;;;;;;18.47;10.10;;;13.00;28.60;;;;;;4985820;28;21028;-69
2023/10/01 06:05:25;;;;;;;18.37;9.70;;;13.30;27.80;;;;;;4986455;28;20547;-67
2023/10/01 06:07:52;;;;;;;18.83;11.10;;;13.60;26.70;;;;;;4984319;28;20540;-66
2023/10/01 06:10:19;;;;;;;13.07;9.40;;;14.00;25.30;;;;;;4989627;28;20472;-66
2023/10/01 06:12:50;;;;;;;14.37;9.37;;;14.40;24.10;;;;;;4989601;28;20464;-66
2023/10/01 06:15:20;;;;;;;15.90;9.63;;;14.80;22.90;;;;;;4989749;28;21002;-66
2023/10/01 06:17:47;;;;;;;14.57;9.03;;;15.20;22.10;;;;;;4991482;28;20465;-65
2023/10/01 06:20:26;;;;;;;11.77;8.10;;;15.50;21.10;;;;;;4994723;28;20463;-66
2023/10/01 06:22:53;;;;;;;14.10;9.70;;;15.80;20.20;;;;;;4989682;28;20522;-66
2023/10/01 06:25:37;;;;;;;14.20;8.80;;;16.10;19.50;;;;;;4996684;28;20494;-66
2023/10/01 06:28:08;;;;;;;12.00;8.53;;;16.30;18.80;;;;;;4993217;28;20463;-65
2023/10/01 06:30:35;;;;;;;13.83;9.10;;;16.40;18.60;;;;;;4992946;28;20529;-68
2023/10/01 06:33:01;;;;;;;12.00;8.50;;;16.50;18.40;;;;;;4991443;28;20551;-67
2023/10/01 06:35:29;;;;;;;17.70;11.00;;;16.70;17.80;;;;;;4997346;28;20483;-66
2023/10/01 06:37:56;;;;;;;14.40;9.80;;;17.00;17.00;;;;;;4988204;28;20480;-65
2023/10/01 06:40:31;;;;;;;14.70;10.20;;;17.20;16.40;;;;;;4989562;28;20481;-66
2023/10/01 06:42:59;;;;;;;18.10;11.33;;;17.50;15.80;;;;;;4987840;28;20460;-66
2023/10/01 06:45:39;;;;;;;17.50;9.90;;;17.70;15.20;;;;;;4986020;28;20568;-66
2023/10/01 06:48:09;;;;;;;15.70;9.70;;;17.90;14.40;;;;;;4989195;28;20472;-66
2023/10/01 06:50:39;;;;;;;17.60;10.87;;;18.40;13.40;;;;;;4983025;28;20505;-67
2023/10/01 06:53:07;;;;;;;13.87;10.20;;;18.70;12.70;;;;;;4988818;28;20464;-66
2023/10/01 06:55:36;;;;;;;16.43;10.63;;;19.20;12.00;;;;;;4987702;28;20485;-66
2023/10/01 06:58:06;;;;;;;13.97;9.57;;;19.50;11.00;;;;;;4986903;28;20602;-66
2023/10/01 07:00:35;;;;;;;16.73;9.93;;;19.90;10.20;;;;;;4987659;28;20465;-66
2023/10/01 07:03:17;;;;;;;15.27;10.07;;;20.30;9.10;;;;;;4988722;28;20937;-67
2023/10/01 07:05:46;;;;;;;16.47;10.67;;;21.10;7.60;;;;;;4990900;28;21051;-66
2023/10/01 07:08:14;;;;;;;16.13;9.93;;;22.00;5.40;;;;;;4981836;28;20472;-66
2023/10/01 07:10:41;;;;;;;14.47;9.97;;;22.80;3.60;;;;;;4988392;28;20504;-67
2023/10/01 07:13:10;;;;;;;14.67;10.77;;;23.70;1.80;;;;;;4985723;28;20475;-67
2023/10/01 07:15:39;;;;;;;15.87;10.53;;;24.70;1.00;;;;;;4982772;28;20492;-65
2023/10/01 07:18:15;;;;;;;16.20;10.90;;;25.70;1.00;;;;;;4984652;28;20469;-66
2023/10/01 07:20:44;;;;;;;16.20;9.60;;;26.60;1.00;;;;;;4986624;28;20521;-66
2023/10/01 07:23:12;;;;;;;15.50;9.53;;;27.40;1.00;;;;;;4989982;28;20496;-67
2023/10/01 07:25:42;;;;;;;14.27;9.80;;;27.90;1.00;;;;;;4988703;28;20890;-65
2023/10/01 07:28:12;;;;;;;15.97;10.93;;;28.60;1.00;;;;;;4984308;28;20908;-70
2023/10/01 07:30:46;;;;;;;16.37;10.63;;;29.60;1.00;;;;;;4982898;28;20563;-69
2023/10/01 07:33:14;;;;;;;20.13;10.30;;;30.70;1.00;;;;;;4986206;28;20462;-69
2023/10/01 07:35:42;;;;;;;16.57;10.50;;;31.50;1.00;;;;;;4986505;28;20522;-69
2023/10/01 07:38:09;;;;;;;15.57;10.80;;;32.40;1.00;;;;;;4988072;28;20504;-69
2023/10/01 07:40:56;;;;;;;15.30;10.40;;;33.10;1.00;;;;;;4985662;28;20468;-68
2023/10/01 07:43:24;;;;;;;14.10;11.00;;;34.00;1.00;;;;;;4985488;28;20973;-66
2023/10/01 07:45:58;;;;;;;15.23;10.13;;;35.00;1.00;;;;;;4986745;28;20492;-67
2023/10/01 07:48:27;;;;;;;14.83;11.30;;;35.60;1.00;;;;;;4984674;28;20475;-69
2023/10/01 07:50:55;;;;;;;17.67;11.00;;;36.30;1.00;;;;;;4993281;28;21016;-69
2023/10/01 07:53:32;;;;;;;18.23;11.77;;;36.80;1.00;;;;;;4988425;28;21018;-70
2023/10/01 07:56:02;;;;;;;17.00;11.60;;;37.40;1.00;;;;;;4987464;28;20464;-71
2023/10/01 07:58:45;;;;;;;17.13;12.37;;;37.90;1.00;;;;;;4988615;28;20504;-67
2023/10/01 08:03:56;;;;;;;17.90;11.87;;;39.20;1.00;;;;;;4986733;28;20475;-71
2023/10/01 08:06:29;;;;;;;15.73;11.53;;;39.80;1.00;;;;;;4985934;28;20472;-71
2023/10/01 08:08:58;;;;;;;14.70;10.83;;;40.20;1.00;;;;;;4986790;28;20889;-71
2023/10/01 08:14:20;;;;;;;13.10;11.00;;;41.10;1.00;;;;;;4985704;28;20618;-72
2023/10/01 08:16:50;;;;;;;15.47;11.90;;;41.50;1.00;;;;;;4986016;28;20488;-71
2023/10/01 08:19:20;;;;;;;15.60;10.93;;;41.80;1.00;;;;;;4984894;28;20461;-71
2023/10/01 08:21:50;;;;;;;15.47;12.03;;;42.20;1.00;;;;;;4985148;28;20456;-71
2023/10/01 08:24:19;;;;;;;14.50;10.80;;;42.50;1.00;;;;;;4984550;28;20500;-71
2023/10/01 08:26:57;;;;;;;15.30;12.03;;;43.00;1.00;;;;;;4989031;28;20884;-72
2023/10/01 08:29:28;;;;;;;19.70;12.23;;;43.50;1.00;;;;;;4988823;28;20989;-72
2023/10/01 08:32:09;;;;;;;17.60;12.60;;;43.80;1.00;;;;;;4987999;28;20860;-72
2023/10/01 08:37:38;;;;;;;14.17;10.93;;;43.50;1.00;;;;;;4946084;28;20459;-72
2023/10/01 08:40:13;;;;;;;16.73;12.30;;;43.90;1.00;;;;;;4947234;28;20572;-72
2023/10/01 08:42:44;;;;;;;14.20;11.00;;;44.30;1.00;;;;;;4966972;28;20578;-72
2023/10/01 08:45:12;;;;;;;15.77;12.00;;;44.60;1.00;;;;;;4990652;28;20491;-72
2023/10/01 08:47:39;;;;;;;18.33;12.73;;;44.90;1.00;;;;;;4993582;28;20474;-72
2023/10/01 08:52:58;;;;;;;14.80;12.13;;;45.60;1.00;;;;;;4998819;28;20492;-71
2023/10/01 08:55:27;;;;;;;16.00;12.50;;;45.70;1.00;;;;;;5002349;28;20487;-71
2023/10/01 08:57:56;;;;;;;14.27;11.90;;;46.10;1.00;;;;;;5009814;28;20462;-71
2023/10/01 09:00:24;;;;;;;15.77;12.30;;;46.10;1.00;;;;;;5008106;28;21406;-70
2023/10/01 09:02:53;;;;;;;16.00;12.57;;;46.30;1.00;;;;;;5007927;28;20476;-71
2023/10/01 09:05:24;;;;;;;18.33;12.47;;;46.50;1.00;;;;;;5009433;28;20483;-69
2023/10/01 09:08:14;;;;;;;17.80;14.50;;;46.60;1.00;;;;;;5005716;28;20526;-71
2023/10/01 09:10:49;;;;;;;17.93;12.57;;;46.90;1.00;;;;;;5009110;28;20961;-69
2023/10/01 09:13:22;;;;;;;18.30;12.63;;;47.10;1.00;;;;;;5004401;28;20459;-69
2023/10/01 09:15:54;;;;;;;16.00;12.40;;;47.40;1.00;;;;;;5009273;28;20459;-72
2023/10/01 09:18:23;;;;;;;15.93;12.03;;;47.70;1.00;;;;;;5007024;28;20870;-71
2023/10/01 09:21:06;;;;;;;16.27;11.93;;;47.90;1.00;;;;;;5003525;28;20578;-69
2023/10/01 09:24:11;;;;;;;16.80;11.73;;;48.30;1.00;;;;;;5003522;28;20464;-68
2023/10/01 09:26:39;;;;;;;16.07;11.67;;;48.40;1.00;;;;;;5008125;28;20459;-70
2023/10/01 09:29:21;;;;;;;17.40;12.90;;;48.50;1.00;;;;;;5012864;28;20473;-71
2023/10/01 09:31:56;;;;;;;15.00;11.90;;;48.50;1.00;;;;;;5009608;28;20499;-70
2023/10/01 09:34:33;;;;;;;17.13;12.17;;;48.50;1.00;;;;;;5011936;28;20665;-68
2023/10/01 09:37:02;;;;;;;16.03;11.43;;;48.60;1.00;;;;;;5010928;28;20459;-70
2023/10/01 09:39:38;;;;;;;14.27;10.50;;;48.80;1.00;;;;;;5008237;28;20852;-71
2023/10/01 09:42:22;;;;;;;14.97;10.90;;;48.90;1.00;;;;;;5012870;28;20944;-71
2023/10/01 09:44:52;;;;;;;16.27;12.00;;;48.90;1.00;;;;;;5011712;28;20618;-68
2023/10/01 09:47:25;;;;;;;18.00;11.83;;;48.80;1.00;;;;;;5012037;28;20463;-69
2023/10/01 09:49:53;;;;;;;18.63;11.40;;;48.60;1.00;;;;;;5009730;28;20479;-68
2023/10/01 09:52:31;;;;;;;15.43;10.80;;;48.30;1.00;;;;;;5012768;28;20456;-69
2023/10/01 09:55:03;;;;;;;15.60;11.77;;;47.90;1.00;;;;;;5011423;28;20567;-69
2023/10/01 09:57:34;;;;;;;17.07;12.40;;;47.70;1.00;;;;;;5009417;28;20455;-69
2023/10/01 10:00:17;;;;;;;17.13;11.53;;;47.40;1.00;;;;;;5010503;28;20503;-69
2023/10/01 10:02:51;;;;;;;13.90;10.30;;;46.80;1.00;;;;;;5009938;28;20975;-69
2023/10/01 10:05:25;;;;;;;15.93;11.00;;;46.40;1.00;;;;;;5009256;28;20546;-69
2023/10/01 10:07:53;;;;;;;16.30;10.97;;;46.20;1.00;;;;;;5010517;28;20459;-69
2023/10/01 10:10:25;;;;;;;14.93;10.73;;;45.90;1.00;;;;;;5011720;28;20465;-69
2023/10/01 10:12:56;;;;;;;18.17;11.80;;;45.40;1.00;;;;;;5008027;28;20468;-69
2023/10/01 10:16:01;;;;;;;19.33;12.50;;;44.90;1.00;;;;;;5009237;28;20486;-71
2023/10/01 10:18:32;;;;;;;16.90;11.77;;;44.40;1.00;;;;;;4998564;28;20464;-70
2023/10/01 10:21:04;;;;;;;16.97;11.40;;;43.70;1.00;;;;;;5011234;28;20482;-70
2023/10/01 10:23:51;;;;;;;14.53;9.30;;;43.20;1.00;;;;;;5008737;28;20471;-70
2023/10/01 10:26:56;;;;;;;16.77;11.47;;;42.60;1.00;;;;;;5006067;28;20475;-70
2023/10/01 10:29:23;;;;;;;16.10;10.53;;;41.90;1.00;;;;;;5010131;28;20456;-70
2023/10/01 10:32:09;;;;;;;16.00;10.07;;;41.20;1.00;;;;;;5009793;28;20480;-70
2023/10/01 10:34:47;;;;;;;14.90;9.27;;;40.30;1.00;;;;;;5010342;28;20483;-70
2023/10/01 10:37:53;;;;;;;14.50;10.70;;;39.60;1.00;;;;;;5005681;28;21002;-70
2023/10/01 10:40:26;;;;;;;15.57;10.33;;;38.70;1.00;;;;;;5010727;28;20463;-70
2023/10/01 10:43:18;;;;;;;16.67;10.20;;;37.90;1.00;;;;;;5002294;28;20466;-70
2023/10/01 10:46:00;;;;;;;14.40;10.03;;;37.20;1.00;;;;;;5007785;28;20533;-70
2023/10/01 10:48:49;;;;;;;16.90;10.73;;;36.70;1.00;;;;;;5009203;28;20464;-69
2023/10/01 10:51:45;;;;;;;14.20;9.60;;;36.20;1.00;;;;;;5001392;28;20531;-70
2023/10/01 10:54:16;;;;;;;15.20;10.00;;;35.90;1.00;;;;;;5011501;28;20519;-70
2023/10/01 10:56:44;;;;;;;18.53;10.50;;;35.50;1.00;;;;;;5011029;28;20482;-70
2023/10/01 10:59:13;;;;;;;13.83;10.00;;;35.40;1.00;;;;;;5008248;28;20969;-70
2023/10/01 11:01:44;;;;;;;14.57;9.13;;;35.30;1.00;;;;;;5007890;28;20571;-70
2023/10/01 11:04:12;;;;;;;15.27;9.30;;;35.20;1.00;;;;;;5011543;28;20561;-70
2023/10/01 11:06:42;;;;;;;13.53;8.93;;;35.10;1.00;;;;;;5009443;28;20480;-70
2023/10/01 11:09:22;;;;;;;14.83;9.80;;;35.10;1.00;;;;;;5008914;28;20467;-70
2023/10/01 11:11:49;;;;;;;16.53;10.67;;;35.00;1.00;;;;;;5010138;28;20463;-69
2023/10/01 11:14:17;;;;;;;15.10;10.23;;;34.70;1.00;;;;;;5008767;28;20581;-69
2023/10/01 11:16:45;;;;;;;16.47;10.00;;;34.30;1.00;;;;;;5008620;28;21066;-69
2023/10/01 11:19:16;;;;;;;15.70;9.90;;;34.10;1.00;;;;;;5010107;28;20463;-69
2023/10/01 11:21:58;;;;;;;15.83;9.53;;;34.10;1.00;;;;;;5009760;28;20536;-69
2023/10/01 11:24:30;;;;;;;17.90;10.23;;;34.10;1.00;;;;;;5006547;28;20511;-69
2023/10/01 11:27:19;;;;;;;15.07;9.50;;;34.00;1.00;;;;;;5009434;28;20874;-69
2023/10/01 11:30:13;;;;;;;17.87;10.10;;;34.00;1.00;;;;;;5007784;28;20530;-69
2023/10/01 11:32:58;;;;;;;16.67;9.40;;;34.00;1.00;;;;;;5008819;28;20475;-69
2023/10/01 11:35:31;;;;;;;18.67;10.30;;;34.10;1.00;;;;;;5005237;28;20914;-69
2023/10/01 11:37:59;;;;;;;15.10;9.27;;;34.00;1.00;;;;;;5006427;28;20917;-69
2023/10/01 11:41:06;;;;;;;14.50;8.70;;;34.00;1.00;;;;;;5012386;28;20837;-69
2023/10/01 11:43:23;;;;;;;15.60;9.07;;;34.00;1.00;;;;;;5008631;28;20547;-69
2023/10/01 11:46:21;;;;;;;14.50;9.50;;;34.00;1.00;;;;;;5008492;28;20479;-69
2023/10/01 11:49:02;;;;;;;14.00;8.70;;;33.70;1.00;;;;;;5009826;28;20460;-69
2023/10/01 11:51:42;;;;;;;17.03;8.70;;;33.30;1.00;;;;;;5008886;28;20553;-69
2023/10/01 11:54:10;;;;;;;17.00;9.60;;;33.10;1.00;;;;;;5010816;28;20529;-69
2023/10/01 11:56:40;;;;;;;16.13;8.70;;;32.70;1.00;;;;;;5008827;28;20570;-69
2023/10/01 11:59:08;;;;;;;14.00;9.13;;;32.50;1.00;;;;;;5008290;28;20490;-69
2023/10/01 12:01:39;;;;;;;13.73;8.73;;;32.00;1.00;;;;;;5009238;28;20474;-69
2023/10/01 12:04:07;;;;;;;13.00;8.10;;;31.70;1.00;;;;;;5005233;28;20494;-69
2023/10/01 12:06:34;;;;;;;14.43;8.97;;;31.40;1.00;;;;;;5009456;28;20483;-69
2023/10/01 12:09:00;;;;;;;16.73;9.53;;;31.10;1.00;;;;;;5005620;28;21039;-69
2023/10/01 12:11:27;;;;;;;15.67;9.47;;;30.80;1.00;;;;;;5009326;28;20467;-70
2023/10/01 12:14:17;;;;;;;15.03;8.97;;;30.70;1.00;;;;;;5009333;28;20487;-69
2023/10/01 12:16:44;;;;;;;13.10;8.20;;;30.50;1.00;;;;;;5001596;28;20463;-69
2023/10/01 12:19:24;;;;;;;13.20;7.90;;;30.20;1.00;;;;;;5003144;28;20459;-69
2023/10/01 12:22:05;;;;;;;16.47;8.20;;;30.00;1.00;;;;;;5005306;28;20499;-71
2023/10/01 12:24:39;;;;;;;14.93;8.67;;;29.80;1.00;;;;;;5002951;28;20486;-70
2023/10/01 12:27:07;;;;;;;14.07;7.37;;;29.50;1.00;;;;;;5004093;28;21067;-70
2023/10/01 12:29:48;;;;;;;14.03;7.90;;;29.30;1.00;;;;;;5008076;28;20478;-70
2023/10/01 12:32:16;;;;;;;13.07;8.23;;;29.00;1.00;;;;;;5007015;28;20479;-70
2023/10/01 12:34:43;;;;;;;13.33;8.37;;;28.70;1.00;;;;;;5002296;28;20493;-65
2023/10/01 12:39:51;;;;;;;14.50;8.40;;;28.10;1.00;;;;;;5002380;28;21106;-65
2023/10/01 12:42:17;;;;;;;16.93;8.37;;;27.70;1.00;;;;;;5007568;28;21055;-65
2023/10/01 12:44:45;;;;;;;13.67;7.13;;;27.60;1.00;;;;;;5012972;28;20566;-66
2023/10/01 12:47:15;;;;;;;12.50;6.70;;;27.50;1.00;;;;;;5007672;28;20224;-65
2023/10/01 12:49:58;;;;;;;13.23;7.10;;;27.40;1.00;;;;;;5008639;28;20470;-66
2023/10/01 12:52:30;;;;;;;16.17;7.60;;;27.30;1.00;;;;;;5006285;28;20460;-65
2023/10/01 12:55:00;;;;;;;14.50;7.97;;;27.30;1.00;;;;;;4992203;28;20529;-68
2023/10/01 12:57:33;;;;;;;13.60;7.63;;;27.20;1.00;;;;;;5001019;28;20551;-68
2023/10/01 13:02:45;;;;;;;12.03;7.57;;;26.90;1.00;;;;;;4999565;28;20468;-66
2023/10/01 13:05:19;;;;;;;13.77;6.43;;;26.80;1.00;;;;;;5001976;28;20506;-66
2023/10/01 13:07:48;;;;;;;13.70;7.47;;;26.60;1.00;;;;;;5008059;28;20467;-66
2023/10/01 13:10:16;;;;;;;15.43;7.60;;;26.50;1.00;;;;;;4999384;28;20462;-65
2023/10/01 13:12:55;;;;;;;12.90;7.97;;;26.40;1.00;;;;;;5004182;28;20472;-66
2023/10/01 13:15:29;;;;;;;13.83;7.23;;;26.30;1.00;;;;;;5005388;28;20490;-66
2023/10/01 13:18:00;;;;;;;12.40;7.07;;;26.20;1.00;;;;;;5001324;28;20456;-66
2023/10/01 13:20:28;;;;;;;12.43;7.27;;;26.20;1.00;;;;;;5007627;28;20482;-65
2023/10/01 13:22:59;;;;;;;13.83;7.60;;;26.20;1.00;;;;;;5006141;28;20463;-65
2023/10/01 13:25:26;;;;;;;11.20;6.47;;;26.10;1.00;;;;;;5003970;28;20491;-65
2023/10/01 13:28:01;;;;;;;12.30;7.07;;;26.10;1.00;;;;;;5008600;28;20893;-65